Time;durP1;ratioP1;P1;durP2;ratioP2;P2;SDS_P1;SDS_P2;PMS_P1;PMS_P2;Temp;Humidity;BMP_temperature;BMP_pressure;BME280_temperature;BME280_humidity;BME280_pressure;Samples;Min_cycle;Max_cycle;Signal;HPM_P1;HPM_P2
2023/10/18 00:00:57;;;;;;;22.33;14.25;;;8.20;99.90;;;;;;5051327;28;20036;-75
2023/10/18 00:03:30;;;;;;;23.42;14.38;;;8.20;99.90;;;;;;5051308;28;20029;-75
2023/10/18 00:06:22;;;;;;;21.63;13.85;;;8.20;99.90;;;;;;5051447;28;20021;-75
2023/10/18 00:08:45;;;;;;;23.02;13.80;;;8.20;99.90;;;;;;5048660;28;20494;-75
2023/10/18 00:11:12;;;;;;;20.35;13.98;;;8.20;99.90;;;;;;5051110;28;20039;-75
2023/10/18 00:13:37;;;;;;;21.55;14.00;;;8.20;99.90;;;;;;5051822;28;20021;-75
2023/10/18 00:16:05;;;;;;;22.58;14.20;;;8.20;99.90;;;;;;5048247;28;20110;-75
2023/10/18 00:18:35;;;;;;;21.60;13.90;;;8.20;99.90;;;;;;5057054;28;20031;-75
2023/10/18 00:21:02;;;;;;;23.98;13.98;;;8.10;99.90;;;;;;5048934;28;20028;-75
2023/10/18 00:23:30;;;;;;;21.58;14.02;;;8.10;99.90;;;;;;5049568;28;20068;-75
2023/10/18 00:25:57;;;;;;;20.92;13.10;;;8.10;99.90;;;;;;5042060;28;20099;-75
2023/10/18 00:28:22;;;;;;;21.33;13.27;;;8.10;99.90;;;;;;5051605;28;20021;-75
2023/10/18 00:30:50;;;;;;;21.65;13.77;;;8.10;99.90;;;;;;5051720;28;20095;-75
2023/10/18 00:33:18;;;;;;;22.70;14.50;;;8.10;99.90;;;;;;5048139;28;20017;-75
2023/10/18 00:35:44;;;;;;;24.95;14.70;;;8.10;99.90;;;;;;5040052;28;20479;-75
2023/10/18 00:38:16;;;;;;;19.88;13.95;;;8.10;99.90;;;;;;5050420;28;20480;-75
2023/10/18 00:40:45;;;;;;;22.33;14.50;;;8.10;99.90;;;;;;5038606;28;20036;-75
2023/10/18 00:45:47;;;;;;;23.60;14.20;;;8.10;99.90;;;;;;5047729;28;20074;-75
2023/10/18 00:48:13;;;;;;;20.35;13.25;;;8.10;99.90;;;;;;5051236;28;20025;-75
2023/10/18 00:50:43;;;;;;;24.20;14.82;;;8.10;99.90;;;;;;5054502;28;20405;-75
2023/10/18 00:53:10;;;;;;;22.30;14.27;;;8.00;99.90;;;;;;5050707;28;20041;-74
2023/10/18 00:55:37;;;;;;;20.55;13.55;;;8.00;99.90;;;;;;5050385;28;20013;-75
2023/10/18 00:58:15;;;;;;;22.00;14.10;;;8.00;99.90;;;;;;5052033;28;20025;-75
2023/10/18 01:00:41;;;;;;;22.73;14.18;;;8.00;99.90;;;;;;5048507;28;20084;-75
2023/10/18 01:03:09;;;;;;;21.33;13.20;;;8.10;99.90;;;;;;5051319;28;20033;-75
2023/10/18 01:05:36;;;;;;;20.90;14.40;;;8.10;99.90;;;;;;5050110;28;20029;-75
2023/10/18 01:08:06;;;;;;;24.10;13.93;;;8.10;99.90;;;;;;5051359;28;20021;-75
2023/10/18 01:10:33;;;;;;;21.73;13.73;;;8.00;99.90;;;;;;5050854;28;20352;-75
2023/10/18 01:13:01;;;;;;;23.20;14.20;;;8.00;99.90;;;;;;5051082;28;20024;-75
2023/10/18 01:15:28;;;;;;;20.55;14.18;;;8.00;99.90;;;;;;5050992;28;20017;-75
2023/10/18 01:17:54;;;;;;;21.50;13.48;;;8.00;99.90;;;;;;5050804;28;20021;-75
2023/10/18 01:20:37;;;;;;;22.75;13.77;;;8.00;99.90;;;;;;5049970;28;20021;-75
2023/10/18 01:23:03;;;;;;;20.90;12.98;;;8.00;99.90;;;;;;5050640;28;20117;-75
2023/10/18 01:25:29;;;;;;;21.52;13.73;;;8.00;99.90;;;;;;5050744;28;20092;-75
2023/10/18 01:27:55;;;;;;;19.08;12.98;;;8.00;99.90;;;;;;5050344;28;20032;-75
2023/10/18 01:30:21;;;;;;;20.23;12.77;;;8.00;99.90;;;;;;5050742;28;20426;-75
2023/10/18 01:32:46;;;;;;;20.42;13.80;;;8.00;99.90;;;;;;5037423;28;20170;-75
2023/10/18 01:35:13;;;;;;;20.23;13.18;;;8.00;99.90;;;;;;5050674;28;20067;-75
2023/10/18 01:37:39;;;;;;;22.55;13.05;;;8.00;99.90;;;;;;5049667;28;20108;-75
2023/10/18 01:42:58;;;;;;;19.33;12.77;;;8.00;99.90;;;;;;5041869;28;20075;-75
2023/10/18 01:45:28;;;;;;;21.83;13.52;;;8.00;99.90;;;;;;5050299;28;20060;-75
2023/10/18 01:47:56;;;;;;;22.90;13.98;;;8.00;99.90;;;;;;5044222;28;20029;-75
2023/10/18 01:50:21;;;;;;;18.25;13.00;;;8.00;99.90;;;;;;5049410;28;20497;-75
2023/10/18 01:52:47;;;;;;;21.08;13.88;;;7.90;99.90;;;;;;5049450;28;20075;-75
2023/10/18 01:55:13;;;;;;;19.40;13.10;;;7.90;99.90;;;;;;5037222;28;20500;-75
2023/10/18 01:57:41;;;;;;;20.45;12.32;;;7.90;99.90;;;;;;5046968;28;20048;-75
2023/10/18 02:00:12;;;;;;;20.92;12.27;;;7.90;99.90;;;;;;5045706;28;20020;-75
2023/10/18 02:02:38;;;;;;;22.38;12.93;;;7.90;99.90;;;;;;5049515;28;20045;-75
2023/10/18 02:05:05;;;;;;;18.88;12.18;;;8.00;99.90;;;;;;5049979;28;20032;-75
2023/10/18 02:07:32;;;;;;;19.15;12.32;;;7.90;99.90;;;;;;5048952;28;20052;-75
2023/10/18 02:09:58;;;;;;;19.55;12.52;;;7.90;99.90;;;;;;5050062;28;20066;-75
2023/10/18 02:12:27;;;;;;;21.50;12.95;;;7.90;99.90;;;;;;5044202;28;20025;-75
2023/10/18 02:14:55;;;;;;;19.20;12.70;;;7.90;99.90;;;;;;5047869;28;20056;-74
2023/10/18 02:17:21;;;;;;;18.00;12.52;;;7.90;99.90;;;;;;5048190;28;20481;-75
2023/10/18 02:19:47;;;;;;;19.58;12.32;;;7.90;99.90;;;;;;5049203;28;20470;-75
2023/10/18 02:22:13;;;;;;;19.80;12.75;;;7.90;99.90;;;;;;5049178;28;20601;-75
2023/10/18 02:24:42;;;;;;;23.02;12.45;;;7.90;99.90;;;;;;5044657;28;20132;-75
2023/10/18 02:27:09;;;;;;;20.85;11.82;;;7.90;99.90;;;;;;5049792;28;20025;-75
2023/10/18 02:29:35;;;;;;;21.73;12.25;;;7.90;99.90;;;;;;5049754;28;20021;-75
2023/10/18 02:32:21;;;;;;;17.77;12.68;;;7.90;99.90;;;;;;5043991;28;20030;-75
2023/10/18 02:34:47;;;;;;;17.27;11.82;;;7.90;99.90;;;;;;5048321;28;20032;-75
2023/10/18 02:37:15;;;;;;;19.50;12.40;;;7.90;99.90;;;;;;5049268;28;20580;-75
2023/10/18 02:39:41;;;;;;;19.67;12.13;;;7.90;99.90;;;;;;5048937;28;20336;-75
2023/10/18 02:42:07;;;;;;;19.25;12.13;;;7.90;99.90;;;;;;5047030;28;20021;-75
2023/10/18 02:44:35;;;;;;;18.92;12.40;;;7.90;99.90;;;;;;5048758;28;20032;-75
2023/10/18 02:49:51;;;;;;;17.40;12.00;;;7.90;99.90;;;;;;5049222;28;20055;-75
2023/10/18 02:52:17;;;;;;;19.85;11.50;;;7.90;99.90;;;;;;5046115;28;20098;-75
2023/10/18 02:54:45;;;;;;;15.75;11.25;;;7.90;99.90;;;;;;5046682;28;20036;-75
2023/10/18 02:57:13;;;;;;;19.80;12.50;;;7.90;99.90;;;;;;5047992;28;20028;-75
2023/10/18 02:59:40;;;;;;;17.23;11.75;;;7.90;99.90;;;;;;5045791;28;20040;-75
2023/10/18 03:02:13;;;;;;;18.58;11.45;;;7.90;99.90;;;;;;5042165;28;21693;-75
2023/10/18 03:04:39;;;;;;;22.08;11.90;;;7.90;99.90;;;;;;5046291;28;20505;-74
2023/10/18 03:07:08;;;;;;;18.10;11.43;;;7.90;99.90;;;;;;5046835;28;20079;-75
2023/10/18 03:12:01;;;;;;;18.98;11.80;;;7.90;99.90;;;;;;5049230;28;20047;-75
2023/10/18 03:14:54;;;;;;;16.58;11.70;;;7.90;99.90;;;;;;5052851;28;20044;-75
2023/10/18 03:17:23;;;;;;;19.63;12.35;;;7.90;99.90;;;;;;5053035;28;20025;-75
2023/10/18 03:19:55;;;;;;;19.35;12.18;;;7.90;99.90;;;;;;5045654;28;20037;-75
2023/10/18 03:22:23;;;;;;;20.30;11.52;;;7.90;99.90;;;;;;5049954;28;20389;-75
2023/10/18 03:24:54;;;;;;;19.65;11.50;;;7.90;99.90;;;;;;5053272;28;20426;-75
2023/10/18 03:27:20;;;;;;;17.65;11.32;;;7.90;99.90;;;;;;5053870;28;20096;-75
2023/10/18 03:29:45;;;;;;;18.25;12.05;;;7.90;99.90;;;;;;5047452;28;20084;-75
2023/10/18 03:32:19;;;;;;;21.98;11.93;;;7.90;99.90;;;;;;5051606;28;20470;-74
2023/10/18 03:34:45;;;;;;;20.80;11.82;;;7.90;99.90;;;;;;5052823;28;20020;-75
2023/10/18 03:37:26;;;;;;;17.65;11.95;;;7.90;99.90;;;;;;5053218;28;20025;-75
2023/10/18 03:39:53;;;;;;;20.88;12.38;;;7.80;99.90;;;;;;5040088;28;20082;-75
2023/10/18 03:42:31;;;;;;;17.63;10.63;;;7.90;99.90;;;;;;5053207;28;20028;-75
2023/10/18 03:44:58;;;;;;;22.30;11.02;;;7.80;99.90;;;;;;5048755;28;20100;-75
2023/10/18 03:47:28;;;;;;;18.35;11.32;;;7.90;99.90;;;;;;5048648;28;20021;-75
2023/10/18 03:49:55;;;;;;;17.60;11.18;;;7.90;99.90;;;;;;5047242;28;20037;-75
2023/10/18 03:52:21;;;;;;;17.70;11.18;;;7.90;99.90;;;;;;5052335;28;20047;-75
2023/10/18 03:57:27;;;;;;;16.33;11.30;;;7.90;99.90;;;;;;5052016;28;20021;-75
2023/10/18 04:00:09;;;;;;;19.23;11.38;;;7.90;99.90;;;;;;5052068;28;20060;-75
2023/10/18 04:02:34;;;;;;;18.35;10.85;;;7.90;99.90;;;;;;5047156;28;20025;-75
2023/10/18 04:05:10;;;;;;;18.95;11.43;;;7.90;99.90;;;;;;5051742;28;20146;-75
2023/10/18 04:07:36;;;;;;;16.77;10.63;;;7.90;99.90;;;;;;5051765;28;20068;-75
2023/10/18 04:10:24;;;;;;;15.57;10.68;;;7.80;99.90;;;;;;5046241;28;20482;-75
2023/10/18 04:12:49;;;;;;;16.60;10.75;;;7.90;99.90;;;;;;5042692;28;20045;-75
2023/10/18 04:15:22;;;;;;;16.27;11.45;;;7.80;99.90;;;;;;5051258;28;20393;-75
2023/10/18 04:18:03;;;;;;;18.05;10.68;;;7.90;99.90;;;;;;5052342;28;20024;-75
2023/10/18 04:20:34;;;;;;;17.33;11.07;;;7.90;99.90;;;;;;5051637;28;20021;-75
2023/10/18 04:23:05;;;;;;;19.10;10.75;;;7.90;99.90;;;;;;5051693;28;20029;-75
2023/10/18 04:25:36;;;;;;;18.55;11.15;;;7.80;99.90;;;;;;5051927;28;20055;-75
2023/10/18 04:28:02;;;;;;;18.48;11.00;;;7.80;99.90;;;;;;5051639;28;20159;-75
2023/10/18 04:30:31;;;;;;;16.08;10.63;;;7.80;99.90;;;;;;5051118;28;20476;-75
2023/10/18 04:33:00;;;;;;;17.90;10.93;;;7.80;99.90;;;;;;5038850;28;20112;-75
2023/10/18 04:35:29;;;;;;;21.40;10.90;;;7.80;99.90;;;;;;5051404;28;20033;-75
2023/10/18 04:37:55;;;;;;;16.75;10.88;;;7.80;99.90;;;;;;5046373;28;20307;-74
2023/10/18 04:40:22;;;;;;;18.60;11.00;;;7.80;99.90;;;;;;5049104;28;20071;-74
2023/10/18 04:42:50;;;;;;;16.73;10.45;;;7.90;99.90;;;;;;5045988;28;20025;-75
2023/10/18 04:45:18;;;;;;;16.42;10.70;;;7.80;99.90;;;;;;5042929;28;20476;-75
2023/10/18 04:47:49;;;;;;;17.17;10.82;;;7.80;99.90;;;;;;5048747;28;20033;-75
2023/10/18 04:50:18;;;;;;;16.83;10.90;;;7.80;99.90;;;;;;5051485;28;20038;-74
2023/10/18 04:52:47;;;;;;;15.63;10.50;;;7.80;99.90;;;;;;5044829;28;20068;-74
2023/10/18 04:55:14;;;;;;;17.88;10.60;;;7.90;99.90;;;;;;5049360;28;20020;-74
2023/10/18 04:57:41;;;;;;;18.15;10.52;;;7.80;99.90;;;;;;5047823;28;20478;-75
2023/10/18 05:00:24;;;;;;;16.50;10.52;;;7.80;99.90;;;;;;5048770;28;20045;-74
2023/10/18 05:02:58;;;;;;;18.33;10.25;;;7.80;99.90;;;;;;5042526;28;20021;-75
2023/10/18 05:05:26;;;;;;;15.43;9.88;;;7.80;99.90;;;;;;5046951;28;20433;-74
2023/10/18 05:07:54;;;;;;;19.63;10.80;;;7.80;99.90;;;;;;5046974;28;20092;-75
2023/10/18 05:10:21;;;;;;;17.35;10.70;;;7.80;99.90;;;;;;5046826;28;20024;-74
2023/10/18 05:12:52;;;;;;;16.33;10.80;;;7.80;99.90;;;;;;5044526;28;20021;-74
2023/10/18 05:15:21;;;;;;;16.67;10.75;;;7.80;99.90;;;;;;5046831;28;20029;-74
2023/10/18 05:17:50;;;;;;;18.10;10.07;;;7.80;99.90;;;;;;5048770;28;20144;-74
2023/10/18 05:22:45;;;;;;;15.05;10.38;;;7.80;99.90;;;;;;5049828;28;20029;-74
2023/10/18 05:27:45;;;;;;;18.83;10.88;;;7.80;99.90;;;;;;5050041;28;20033;-74
2023/10/18 05:30:15;;;;;;;16.42;10.32;;;7.80;99.90;;;;;;5049492;28;20032;-74
2023/10/18 05:35:33;;;;;;;13.87;7.40;;;7.80;99.90;;;;;;5047012;28;20033;-74
2023/10/18 05:37:59;;;;;;;17.52;10.57;;;7.80;99.90;;;;;;5047548;28;20359;-75
2023/10/18 05:43:05;;;;;;;16.85;10.35;;;7.80;99.90;;;;;;5049229;28;20433;-75
2023/10/18 05:45:34;;;;;;;18.48;11.02;;;7.70;99.90;;;;;;5049135;28;20489;-75
2023/10/18 05:48:03;;;;;;;18.63;10.48;;;7.80;99.90;;;;;;5041493;28;20048;-75
2023/10/18 05:50:34;;;;;;;16.85;10.30;;;7.70;99.90;;;;;;5049461;28;20064;-74
2023/10/18 05:53:03;;;;;;;18.13;11.02;;;7.70;99.90;;;;;;5046820;28;20502;-74
2023/10/18 05:55:30;;;;;;;15.73;11.45;;;7.80;99.90;;;;;;5040579;28;20080;-75
2023/10/18 05:57:56;;;;;;;19.30;10.35;;;7.70;99.90;;;;;;5048329;28;20045;-75
2023/10/18 06:00:22;;;;;;;17.38;10.23;;;7.70;99.90;;;;;;5047560;28;20418;-74
2023/10/18 06:02:52;;;;;;;16.75;10.93;;;7.80;99.90;;;;;;5048723;28;20132;-75
2023/10/18 06:05:19;;;;;;;16.33;10.68;;;7.70;99.90;;;;;;5049732;28;20112;-74
2023/10/18 06:07:46;;;;;;;18.10;10.10;;;7.70;99.90;;;;;;5049466;28;20032;-74
2023/10/18 06:10:17;;;;;;;17.50;10.68;;;7.70;99.90;;;;;;5047462;28;20412;-74
2023/10/18 06:12:49;;;;;;;19.33;10.93;;;7.70;99.90;;;;;;5038787;28;20021;-75
2023/10/18 06:15:19;;;;;;;17.42;9.90;;;7.70;99.90;;;;;;5049840;28;20054;-74
2023/10/18 06:20:30;;;;;;;17.38;10.60;;;7.70;99.90;;;;;;5046252;28;20096;-74
2023/10/18 06:25:49;;;;;;;16.90;10.60;;;7.70;99.90;;;;;;5048703;28;20036;-74
2023/10/18 06:28:21;;;;;;;15.05;10.18;;;7.70;99.90;;;;;;5049614;28;20025;-74
2023/10/18 06:30:50;;;;;;;17.60;10.32;;;7.70;99.90;;;;;;5049136;28;20095;-74
2023/10/18 06:33:19;;;;;;;17.13;10.48;;;7.60;99.90;;;;;;5049726;28;20021;-74
2023/10/18 06:35:53;;;;;;;17.30;10.90;;;7.60;99.90;;;;;;5048622;28;20025;-74
2023/10/18 06:38:22;;;;;;;18.70;11.17;;;7.70;99.90;;;;;;5049528;28;20480;-74
2023/10/18 06:43:17;;;;;;;22.60;11.20;;;7.70;99.90;;;;;;5049045;28;20047;-74
2023/10/18 06:45:42;;;;;;;16.48;10.90;;;7.70;99.90;;;;;;5047788;28;20074;-74
2023/10/18 06:48:08;;;;;;;19.10;10.82;;;7.70;99.90;;;;;;5048877;28;20466;-74
2023/10/18 06:50:35;;;;;;;17.88;10.50;;;7.70;99.90;;;;;;5053386;28;20029;-74
2023/10/18 06:53:05;;;;;;;16.27;10.38;;;7.70;99.90;;;;;;5051246;28;20044;-74
2023/10/18 06:55:55;;;;;;;20.52;11.38;;;7.80;99.90;;;;;;5052974;28;20040;-75
2023/10/18 07:00:51;;;;;;;15.57;10.27;;;7.80;99.90;;;;;;5053606;28;20448;-74
2023/10/18 07:03:18;;;;;;;18.75;11.20;;;7.80;99.90;;;;;;5049966;28;20049;-74
2023/10/18 07:05:49;;;;;;;17.17;10.73;;;7.80;99.90;;;;;;5048576;28;20021;-74
2023/10/18 07:08:40;;;;;;;21.13;10.73;;;7.90;99.90;;;;;;5041433;28;20057;-74
2023/10/18 07:11:01;;;;;;;17.23;10.98;;;7.90;99.90;;;;;;5051558;28;20109;-75
2023/10/18 07:13:38;;;;;;;16.90;9.95;;;7.90;99.90;;;;;;5053322;28;20393;-74
2023/10/18 07:16:06;;;;;;;15.73;10.05;;;8.00;99.90;;;;;;5049837;28;20079;-75
2023/10/18 07:18:36;;;;;;;13.38;9.73;;;8.00;99.90;;;;;;5051474;28;20405;-75
2023/10/18 07:21:05;;;;;;;19.73;10.13;;;8.00;99.90;;;;;;5042432;28;20340;-74
2023/10/18 07:23:40;;;;;;;15.55;9.55;;;8.00;99.90;;;;;;5054835;28;20454;-74
2023/10/18 07:26:13;;;;;;;14.82;9.40;;;8.10;99.90;;;;;;5043243;28;20455;-74
2023/10/18 07:28:40;;;;;;;15.85;9.90;;;8.10;99.90;;;;;;5047984;28;20071;-74
2023/10/18 07:31:09;;;;;;;21.63;9.73;;;8.10;99.90;;;;;;5052772;28;20058;-75
2023/10/18 07:33:41;;;;;;;16.88;9.85;;;8.20;99.90;;;;;;5049117;28;20021;-74
2023/10/18 07:36:11;;;;;;;15.57;10.18;;;8.20;99.90;;;;;;5052673;28;20021;-74
2023/10/18 07:38:39;;;;;;;17.08;10.10;;;8.20;99.90;;;;;;5052557;28;20028;-74
2023/10/18 07:41:07;;;;;;;17.58;9.98;;;8.30;99.90;;;;;;5043438;28;20021;-74
2023/10/18 07:43:34;;;;;;;13.50;9.30;;;8.30;99.90;;;;;;5048934;28;20025;-75
2023/10/18 07:46:05;;;;;;;14.60;9.55;;;8.30;99.90;;;;;;5052387;28;20445;-75
2023/10/18 07:48:31;;;;;;;16.38;9.55;;;8.30;99.90;;;;;;5052106;28;20029;-75
2023/10/18 07:50:58;;;;;;;14.05;9.35;;;8.40;99.90;;;;;;5051753;28;20854;-75
2023/10/18 07:53:24;;;;;;;13.43;8.73;;;8.40;99.90;;;;;;5048940;28;20071;-74
2023/10/18 07:55:57;;;;;;;13.68;9.10;;;8.50;99.90;;;;;;5049139;28;20025;-75
2023/10/18 07:58:25;;;;;;;15.18;9.50;;;8.50;99.90;;;;;;5051113;28;20017;-75
2023/10/18 08:03:27;;;;;;;14.05;9.05;;;8.60;99.90;;;;;;5050694;28;20552;-75
2023/10/18 08:05:57;;;;;;;15.57;9.38;;;8.60;99.90;;;;;;5050598;28;20424;-75
2023/10/18 08:08:26;;;;;;;17.00;8.93;;;8.70;99.90;;;;;;5051215;28;20083;-74
2023/10/18 08:10:56;;;;;;;12.85;9.05;;;8.70;99.90;;;;;;5050168;28;20028;-75
2023/10/18 08:13:28;;;;;;;14.65;9.38;;;8.80;99.90;;;;;;5050135;28;20027;-75
2023/10/18 08:16:09;;;;;;;16.80;9.18;;;8.80;99.90;;;;;;5050586;28;20090;-75
2023/10/18 08:18:44;;;;;;;16.60;8.93;;;8.90;99.90;;;;;;5049079;28;20029;-75
2023/10/18 08:21:25;;;;;;;12.38;7.82;;;8.90;99.90;;;;;;5045432;28;20032;-74
2023/10/18 08:24:06;;;;;;;13.38;9.05;;;9.00;99.90;;;;;;5047488;28;20033;-74
2023/10/18 08:26:38;;;;;;;16.17;9.05;;;9.00;99.90;;;;;;5050980;28;20024;-75
2023/10/18 08:29:04;;;;;;;13.73;8.90;;;9.10;99.90;;;;;;5037749;28;20029;-75
2023/10/18 08:31:32;;;;;;;13.43;8.80;;;9.10;99.90;;;;;;5045866;28;20400;-75
2023/10/18 08:34:05;;;;;;;13.40;9.25;;;9.20;99.90;;;;;;5049873;28;20029;-75
2023/10/18 08:36:31;;;;;;;12.93;8.98;;;9.20;99.90;;;;;;5049642;28;20035;-75
2023/10/18 08:38:58;;;;;;;16.58;8.82;;;9.20;99.90;;;;;;5049904;28;20033;-75
2023/10/18 08:41:32;;;;;;;17.77;9.38;;;9.30;99.90;;;;;;5049445;28;20466;-75
2023/10/18 08:44:16;;;;;;;13.23;9.38;;;9.30;99.90;;;;;;5050200;28;20032;-75
2023/10/18 08:46:43;;;;;;;14.02;9.07;;;9.30;99.90;;;;;;5050179;28;20155;-75
2023/10/18 08:49:13;;;;;;;12.48;9.13;;;9.40;99.90;;;;;;5050818;28;20122;-75
2023/10/18 08:51:44;;;;;;;14.97;9.30;;;9.40;99.90;;;;;;5010442;28;1081657;-75
2023/10/18 08:54:17;;;;;;;12.13;8.95;;;9.40;99.90;;;;;;5049926;28;20382;-75
2023/10/18 08:56:47;;;;;;;14.55;8.85;;;9.40;99.90;;;;;;5049055;28;20116;-75
2023/10/18 08:59:18;;;;;;;13.50;8.65;;;9.50;99.90;;;;;;5050358;28;20024;-75
2023/10/18 09:04:35;;;;;;;14.90;9.20;;;9.60;99.90;;;;;;5047465;28;20031;-75
2023/10/18 09:09:58;;;;;;;16.70;8.63;;;9.70;99.90;;;;;;5048669;28;20126;-75
2023/10/18 09:17:56;;;;;;;14.13;9.40;;;9.80;99.90;;;;;;5046382;28;20036;-76
2023/10/18 09:20:26;;;;;;;13.57;9.30;;;9.80;99.90;;;;;;5048768;28;20032;-76
2023/10/18 09:22:54;;;;;;;13.55;8.38;;;9.80;99.90;;;;;;5045481;28;20057;-76
2023/10/18 09:25:45;;;;;;;13.27;8.93;;;9.80;99.90;;;;;;5045127;28;20020;-74
2023/10/18 09:28:10;;;;;;;13.65;9.27;;;9.90;99.90;;;;;;5039953;28;20143;-73
2023/10/18 09:30:36;;;;;;;15.02;9.32;;;9.90;99.90;;;;;;5048724;28;20377;-74
2023/10/18 09:33:03;;;;;;;13.88;8.68;;;10.00;99.90;;;;;;5047310;28;20094;-74
2023/10/18 09:35:30;;;;;;;13.20;8.90;;;10.10;99.90;;;;;;5044184;28;20029;-73
2023/10/18 09:38:03;;;;;;;12.85;8.88;;;10.10;99.90;;;;;;5049146;28;20017;-74
2023/10/18 09:40:29;;;;;;;17.85;8.98;;;10.20;99.90;;;;;;5051460;28;20021;-73
2023/10/18 09:42:55;;;;;;;15.23;9.27;;;10.30;99.90;;;;;;5050540;28;20047;-74
2023/10/18 09:45:20;;;;;;;14.40;8.25;;;10.30;99.90;;;;;;5040499;28;20025;-74
2023/10/18 09:47:50;;;;;;;13.15;8.77;;;10.40;99.90;;;;;;5047136;28;20370;-74
2023/10/18 09:50:23;;;;;;;10.60;8.25;;;10.50;99.90;;;;;;5050329;28;20024;-74
2023/10/18 09:52:56;;;;;;;14.73;8.80;;;10.60;99.90;;;;;;5048229;28;20326;-74
2023/10/18 09:55:27;;;;;;;13.90;8.80;;;10.70;99.90;;;;;;5046161;28;20061;-74
2023/10/18 09:57:59;;;;;;;13.63;8.20;;;10.80;99.90;;;;;;5049811;28;20021;-74
2023/10/18 10:00:50;;;;;;;19.25;8.73;;;10.80;99.90;;;;;;5049441;28;20124;-74
2023/10/18 10:03:24;;;;;;;11.32;8.85;;;10.90;99.90;;;;;;5047594;28;20036;-74
2023/10/18 10:05:50;;;;;;;15.75;8.52;;;11.00;99.90;;;;;;5042691;28;20025;-74
2023/10/18 10:08:18;;;;;;;12.63;8.60;;;11.10;99.90;;;;;;5050340;28;20119;-74
2023/10/18 10:10:45;;;;;;;12.90;8.52;;;11.20;99.90;;;;;;5045585;28;20719;-74
2023/10/18 10:13:37;;;;;;;13.20;8.10;;;11.30;99.90;;;;;;5048676;28;20303;-73
2023/10/18 10:16:08;;;;;;;13.10;7.95;;;11.30;99.90;;;;;;5042527;28;20377;-74
2023/10/18 10:18:39;;;;;;;11.68;7.40;;;11.40;99.90;;;;;;5049415;28;20566;-74
2023/10/18 10:21:08;;;;;;;13.23;8.13;;;11.50;99.90;;;;;;5043859;28;20362;-74
2023/10/18 10:23:35;;;;;;;14.63;8.48;;;11.50;99.90;;;;;;5049360;28;20032;-74
2023/10/18 10:26:11;;;;;;;11.52;7.78;;;11.60;99.90;;;;;;5049179;28;20102;-73
2023/10/18 10:31:53;;;;;;;9.35;7.43;;;11.60;99.90;;;;;;5045698;28;20045;-73
2023/10/18 10:34:24;;;;;;;15.25;7.82;;;11.60;99.90;;;;;;5048452;28;20103;-74
2023/10/18 10:37:09;;;;;;;11.43;7.82;;;11.60;99.90;;;;;;5042740;28;20048;-74
2023/10/18 10:40:14;;;;;;;11.15;7.72;;;11.70;99.90;;;;;;5059705;28;20025;-74
2023/10/18 10:42:44;;;;;;;12.93;7.53;;;11.70;99.90;;;;;;5043165;28;20033;-74
2023/10/18 10:47:46;;;;;;;10.75;7.28;;;11.80;99.90;;;;;;5049402;28;20100;-74
2023/10/18 10:50:50;;;;;;;10.98;7.97;;;11.80;99.90;;;;;;5047824;28;20021;-74
2023/10/18 10:53:33;;;;;;;11.68;7.40;;;11.90;99.90;;;;;;5046406;28;20044;-74
2023/10/18 10:56:17;;;;;;;9.13;7.18;;;12.00;99.90;;;;;;5045587;28;20029;-74
2023/10/18 10:58:47;;;;;;;15.25;8.15;;;12.10;99.90;;;;;;5048152;28;20028;-74
2023/10/18 11:01:13;;;;;;;13.90;7.68;;;12.20;99.90;;;;;;5046687;28;20424;-73
2023/10/18 11:03:54;;;;;;;14.98;7.70;;;12.20;99.90;;;;;;5042575;28;20100;-74
2023/10/18 11:06:24;;;;;;;13.35;7.20;;;12.30;99.90;;;;;;5042026;28;20021;-74
2023/10/18 11:08:52;;;;;;;14.07;7.18;;;12.40;99.90;;;;;;5045640;28;20059;-74
2023/10/18 11:11:21;;;;;;;13.18;8.48;;;12.40;99.90;;;;;;5048255;28;20122;-74
2023/10/18 11:13:49;;;;;;;11.00;7.90;;;12.50;99.90;;;;;;5048137;28;20355;-74
2023/10/18 11:16:20;;;;;;;12.38;7.82;;;12.50;99.90;;;;;;5048337;28;20025;-73
2023/10/18 11:18:48;;;;;;;12.80;7.88;;;12.60;99.90;;;;;;5048138;28;20036;-74
2023/10/18 11:21:24;;;;;;;12.50;7.65;;;12.60;99.90;;;;;;5048411;28;20021;-74
2023/10/18 11:24:10;;;;;;;13.40;7.82;;;12.70;99.90;;;;;;5036365;28;20040;-74
2023/10/18 11:26:40;;;;;;;11.07;7.53;;;12.70;99.90;;;;;;5047653;28;20466;-73
2023/10/18 11:29:07;;;;;;;13.02;7.65;;;12.80;99.90;;;;;;5048257;28;20029;-74
2023/10/18 11:31:44;;;;;;;10.15;7.72;;;12.80;99.90;;;;;;5048818;28;20060;-73
2023/10/18 11:34:14;;;;;;;14.35;7.43;;;12.90;99.90;;;;;;5046244;28;20029;-73
2023/10/18 11:36:42;;;;;;;14.18;7.72;;;12.90;99.90;;;;;;5051787;28;20017;-74
2023/10/18 11:41:44;;;;;;;13.90;7.82;;;13.10;99.90;;;;;;5052456;28;20375;-74
2023/10/18 11:44:16;;;;;;;10.88;7.75;;;13.00;99.90;;;;;;5050160;28;20029;-74
2023/10/18 11:46:51;;;;;;;10.35;7.50;;;13.10;99.90;;;;;;5051652;28;20017;-74
2023/10/18 11:49:19;;;;;;;11.98;7.40;;;13.20;99.90;;;;;;5050987;28;20021;-73
2023/10/18 11:51:49;;;;;;;11.70;8.02;;;13.20;99.90;;;;;;5050883;28;20045;-74
2023/10/18 11:54:31;;;;;;;13.60;6.93;;;13.30;99.90;;;;;;5049407;28;20052;-74
2023/10/18 11:56:58;;;;;;;14.40;7.57;;;13.30;99.90;;;;;;5051079;28;20017;-74
2023/10/18 11:59:24;;;;;;;14.40;7.18;;;13.40;99.90;;;;;;5052362;28;20017;-74
2023/10/18 12:02:05;;;;;;;9.82;7.18;;;13.40;99.90;;;;;;5048341;28;20025;-74
2023/10/18 12:04:37;;;;;;;11.05;7.30;;;13.50;99.90;;;;;;5038943;28;20076;-74
2023/10/18 12:07:04;;;;;;;12.48;7.10;;;13.50;99.90;;;;;;5050615;28;20122;-73
2023/10/18 12:09:42;;;;;;;14.18;7.75;;;13.50;99.90;;;;;;5045158;28;20136;-73
2023/10/18 12:12:12;;;;;;;12.65;7.93;;;13.50;99.90;;;;;;5046425;28;20063;-73
2023/10/18 12:14:42;;;;;;;13.02;7.50;;;13.50;99.90;;;;;;5050130;28;20064;-74
2023/10/18 12:17:09;;;;;;;12.80;7.10;;;13.50;99.90;;;;;;5048258;28;20021;-74
2023/10/18 12:19:36;;;;;;;11.63;7.22;;;13.60;99.90;;;;;;5038557;28;20036;-74
2023/10/18 12:22:03;;;;;;;10.40;7.40;;;13.70;99.90;;;;;;5051387;28;20025;-74
2023/10/18 12:24:28;;;;;;;12.90;7.57;;;13.70;99.90;;;;;;5045010;28;20013;-74
2023/10/18 12:26:54;;;;;;;14.02;8.00;;;13.80;99.90;;;;;;5050766;28;20013;-73
2023/10/18 12:29:28;;;;;;;11.52;7.72;;;13.90;99.90;;;;;;5051513;28;20020;-74
2023/10/18 12:32:07;;;;;;;12.32;7.30;;;13.90;99.90;;;;;;5050764;28;20041;-73
2023/10/18 12:34:35;;;;;;;13.32;7.97;;;13.90;99.90;;;;;;5046122;28;20040;-74
2023/10/18 12:37:01;;;;;;;14.40;7.85;;;13.90;99.90;;;;;;5066858;28;20502;-73
2023/10/18 12:39:34;;;;;;;11.50;7.68;;;13.90;99.90;;;;;;5050620;28;20009;-73
2023/10/18 12:42:00;;;;;;;13.60;7.88;;;14.00;99.90;;;;;;5051401;28;20040;-73
2023/10/18 12:44:28;;;;;;;14.23;8.05;;;14.10;99.90;;;;;;5050561;28;20408;-74
2023/10/18 12:46:54;;;;;;;12.95;7.45;;;14.10;99.90;;;;;;5050130;28;20021;-73
2023/10/18 12:49:23;;;;;;;12.93;7.88;;;14.10;99.90;;;;;;5049830;28;20036;-74
2023/10/18 12:51:57;;;;;;;15.48;8.10;;;14.10;99.90;;;;;;5050032;28;20492;-74
2023/10/18 12:54:29;;;;;;;15.45;8.02;;;14.20;99.90;;;;;;5049761;28;20410;-73
2023/10/18 12:57:08;;;;;;;13.45;7.72;;;14.30;99.90;;;;;;5049383;28;20037;-74
2023/10/18 12:59:59;;;;;;;15.18;7.65;;;14.30;99.90;;;;;;5047469;28;20028;-74
2023/10/18 13:05:12;;;;;;;12.35;7.97;;;14.30;99.90;;;;;;5043491;28;20039;-73
2023/10/18 13:07:43;;;;;;;13.25;7.80;;;14.30;99.90;;;;;;5047240;28;20462;-73
2023/10/18 13:10:12;;;;;;;10.23;7.68;;;14.30;99.90;;;;;;5038092;28;20033;-74
2023/10/18 13:12:53;;;;;;;15.02;8.77;;;14.20;99.90;;;;;;5048659;28;20025;-73
2023/10/18 13:15:22;;;;;;;12.70;7.95;;;14.20;99.90;;;;;;5051140;28;20112;-73
2023/10/18 13:17:48;;;;;;;13.27;7.70;;;14.20;99.90;;;;;;5050616;28;20035;-73
2023/10/18 13:20:16;;;;;;;13.75;7.82;;;14.20;99.90;;;;;;5049257;28;20106;-73
2023/10/18 13:22:43;;;;;;;14.38;8.02;;;14.20;99.90;;;;;;5050792;28;20032;-73
2023/10/18 13:25:09;;;;;;;14.02;7.65;;;14.20;99.90;;;;;;5051190;28;20511;-73
2023/10/18 13:27:38;;;;;;;11.38;8.15;;;14.30;99.90;;;;;;5050127;28;20021;-73
2023/10/18 13:32:50;;;;;;;12.07;7.90;;;14.30;99.90;;;;;;5051214;28;20128;-73
2023/10/18 13:35:16;;;;;;;10.60;8.30;;;14.30;99.90;;;;;;5049144;28;20493;-73
2023/10/18 13:37:44;;;;;;;14.95;8.10;;;14.40;99.90;;;;;;5049355;28;20021;-74
2023/10/18 13:40:18;;;;;;;11.27;7.82;;;14.40;99.90;;;;;;5051391;28;20037;-74
2023/10/18 13:42:50;;;;;;;13.43;8.20;;;14.40;99.90;;;;;;5048609;28;20032;-74
2023/10/18 13:45:16;;;;;;;13.60;8.20;;;14.50;99.90;;;;;;5032760;28;20018;-74
2023/10/18 13:47:42;;;;;;;13.60;8.57;;;14.50;99.90;;;;;;5047488;28;20047;-74
2023/10/18 13:50:10;;;;;;;16.60;8.02;;;14.50;99.90;;;;;;5046882;28;20024;-74
2023/10/18 13:52:38;;;;;;;14.70;8.07;;;14.60;99.90;;;;;;5047476;28;20045;-75
2023/10/18 13:55:04;;;;;;;15.43;8.15;;;14.70;99.90;;;;;;5047307;28;20118;-75